Terminal Aerodrome Forecast
Issued by NWS Tallahassee, FL

Home | Current Version | Previous Version | Text Only | Print | Product List | Glossary On
Versions: 1 2 3 4 5 6 7 8 9 10 11 12 13 14 15 16 17 18 19 20 21
000
FTUS42 KTAE 290520
TAFTLH
TAF
KTLH 290520Z 2906/3006 22006KT P6SM OVC007
     FM291000 00000KT 1SM BR BKN002
     FM291400 18008KT P6SM SCT035
     FM300000 20005KT P6SM SCT250=

USA.gov is the U.S. government's official web portal to all federal, state and local government web resources and services.